Harbor Emperor — WCY6430 — position and weather

sailwx.info

Track history (hours):
 
Tides and Currents Weather Stations Pressure Air Temp Water Temp Dewpoint Dewpoint Depression Visibility Wind Speed Wind Dir Waves Ship Positions

Harbor Emperor

More information available from US FCC via Universal Licensing System and Coast Guard Vessel Documentation Center.

Last reported at 2014-Jul-24 21:33 UTC. Time now 2014-Jul-24 21:42 UTC.
Position N 37°49' W 122°25'.

Length 31 m.

Type: Passenger vessel. MMSI: 366985270.

Date/timePositionNaut miles runAvg speedWind from/ knotsBaromVisibWave heightAir tempDewpointWater temp
2014-Jul-24 21:33N 37°49' W 122°25'2 1.9
2014-Jul-24 20:33N 37°49' W 122°27'3 2.8
2014-Jul-24 19:33N 37°49' W 122°24'1 1.0
2014-Jul-24 18:33N 37°49' W 122°25'0 0.0
2014-Jul-24 03:32N 37°49' W 122°25'0 0.1
2014-Jul-24 02:34N 37°49' W 122°25'2 1.9
2014-Jul-24 01:33N 37°50' W 122°27'2 2.0
2014-Jul-24 00:33N 37°49' W 122°25'0 0.1
2014-Jul-23 23:33N 37°49' W 122°25'2 2.2
2014-Jul-23 22:33N 37°49' W 122°28'2 2.3
2014-Jul-23 21:34N 37°49' W 122°25'2 2.5
2014-Jul-23 20:33N 37°49' W 122°28'3 3.4
2014-Jul-23 19:33N 37°48' W 122°24'1 0.9
2014-Jul-23 18:34N 37°49' W 122°25'0 0.0
2014-Jul-23 03:33N 37°49' W 122°25'0 0.0
2014-Jul-23 02:34N 37°49' W 122°25'2 1.6
2014-Jul-23 01:33N 37°50' W 122°26'2 1.6
2014-Jul-23 00:33N 37°49' W 122°25'0 0.0
2014-Jul-22 23:33N 37°49' W 122°25'2 1.7
2014-Jul-22 22:34N 37°49' W 122°27'2 1.7
2014-Jul-22 21:33N 37°49' W 122°25'2 1.8
2014-Jul-22 20:33N 37°49' W 122°27'2 1.9
2014-Jul-22 19:33N 37°50' W 122°25'1 1.0
2014-Jul-22 18:33N 37°49' W 122°25'0 0.0
2014-Jul-22 05:23N 37°49' W 122°25'1 1.7
2014-Jul-22 04:33N 37°48' W 122°23'4 4.4
2014-Jul-22 03:33N 37°49' W 122°28'2 2.2
2014-Jul-22 02:34N 37°50' W 122°26'4 3.6
2014-Jul-22 01:33N 37°47' W 122°23'0 0.2
2014-Jul-22 00:33N 37°47' W 122°23'2 2.2
2014-Jul-21 23:33N 37°49' W 122°25'1 1.0
2014-Jul-21 22:33N 37°49' W 122°26'1 1.0
2014-Jul-21 21:34N 37°49' W 122°25'0 0.1
2014-Jul-21 20:33N 37°49' W 122°25'0 0.2
2014-Jul-21 20:18N 37°49' W 122°25'4 5.1
2014-Jul-21 19:32N 37°52' W 122°27'5 5.0
2014-Jul-21 18:34N 37°48' W 122°24'1 0.9
2014-Jul-21 17:34N 37°49' W 122°25'0 0.1
2014-Jul-21 16:34N 37°49' W 122°25'0 0.0
2014-Jul-21 03:31N 37°49' W 122°25'0 0.0
2014-Jul-21 02:33N 37°49' W 122°25'2 2.2
2014-Jul-21 01:33N 37°49' W 122°27'2 2.2
2014-Jul-21 00:33N 37°49' W 122°25'0 0.0
2014-Jul-20 23:34N 37°49' W 122°25'2 2.0
2014-Jul-20 22:34N 37°49' W 122°27'2 2.0
2014-Jul-20 21:33N 37°49' W 122°25'2 1.8
2014-Jul-20 20:33N 37°49' W 122°27'2 1.8
2014-Jul-20 19:33N 37°49' W 122°25'1 0.7
2014-Jul-20 18:33N 37°49' W 122°25'0 0.0
2014-Jul-20 03:33N 37°49' W 122°25'0 0.0
2014-Jul-20 02:33N 37°49' W 122°25'2 2.3
2014-Jul-20 01:33N 37°49' W 122°27'2 2.3
2014-Jul-20 00:34N 37°49' W 122°25'0 0.0
2014-Jul-19 23:33N 37°49' W 122°25'1 1.2
2014-Jul-19 22:34N 37°49' W 122°26'1 1.2
2014-Jul-19 21:34N 37°49' W 122°25'1 1.5
2014-Jul-19 20:33N 37°49' W 122°27'1 1.4
2014-Jul-19 19:33N 37°49' W 122°25'1 0.8
2014-Jul-19 18:33N 37°49' W 122°25'0 0.0
2014-Jul-19 03:30N 37°49' W 122°25'0 0.1
2014-Jul-19 02:33N 37°49' W 122°25'2 1.9
2014-Jul-19 01:33N 37°49' W 122°27'2 2.0
2014-Jul-19 00:33N 37°49' W 122°25'0 0.0
2014-Jul-18 23:33N 37°49' W 122°25'1 0.9
2014-Jul-18 22:33N 37°49' W 122°26'1 0.9
2014-Jul-18 21:33N 37°49' W 122°25'1 1.2
2014-Jul-18 20:33N 37°49' W 122°26'1 1.1
2014-Jul-18 19:33N 37°49' W 122°25'1 0.8
2014-Jul-18 18:33N 37°49' W 122°25'0 0.0
2014-Jul-18 02:31N 37°49' W 122°25'0 0.0
2014-Jul-18 01:33N 37°49' W 122°25'0 0.0
2014-Jul-18 00:33N 37°49' W 122°25'0 0.1
2014-Jul-17 23:34N 37°49' W 122°25'2 1.7
2014-Jul-17 22:33N 37°49' W 122°27'2 1.8
2014-Jul-17 21:33N 37°49' W 122°25'2 1.8
2014-Jul-17 20:33N 37°49' W 122°27'2 2.5
2014-Jul-17 19:33N 37°49' W 122°24'1 0.7
2014-Jul-17 18:34N 37°49' W 122°25'0 0.0
2014-Jul-17 17:29N 37°49' W 122°25'0 0.0
2014-Jul-17 16:32N 37°49' W 122°25'0 0.0
2014-Jul-17 15:32N 37°49' W 122°25'0 0.0
2014-Jul-17 14:32N 37°49' W 122°25'0 0.0
2014-Jul-17 13:32N 37°49' W 122°25'0 0.0
2014-Jul-17 12:32N 37°49' W 122°25'0 0.0
2014-Jul-17 11:32N 37°49' W 122°25'0 0.0
2014-Jul-17 10:32N 37°49' W 122°25'0 0.0
2014-Jul-17 09:32N 37°49' W 122°25'0 0.0
2014-Jul-17 08:32N 37°49' W 122°25'0 0.0
2014-Jul-17 07:26N 37°49' W 122°25'0 0.0
2014-Jul-17 06:32N 37°49' W 122°25'0 0.0
2014-Jul-17 05:32N 37°49' W 122°25'0 0.0
2014-Jul-17 04:30N 37°49' W 122°25'4 3.8
2014-Jul-17 03:34N 37°51' W 122°28'4 0.7
2014-Jul-16 22:34N 37°49' W 122°24'3 2.6
2014-Jul-16 21:33N 37°50' W 122°27'2 1.9
2014-Jul-16 20:34N 37°52' W 122°27'4 4.5
2014-Jul-16 19:34N 37°49' W 122°24'1 0.7
2014-Jul-16 18:33N 37°49' W 122°25'0 0.0
2014-Jul-16 17:33N 37°49' W 122°25'0 0.1
2014-Jul-16 16:33N 37°49' W 122°25'0 0.0
2014-Jul-16 15:33N 37°49' W 122°25'0 0.0
2014-Jul-16 14:33N 37°49' W 122°25'0 0.0
2014-Jul-16 13:33N 37°49' W 122°25'0 0.0
2014-Jul-16 12:33N 37°49' W 122°25'0 0.0
2014-Jul-16 11:33N 37°49' W 122°25'0 0.0
2014-Jul-16 10:33N 37°49' W 122°25'0 0.0
2014-Jul-16 09:33N 37°49' W 122°25'0 0.0
2014-Jul-16 08:33N 37°49' W 122°25'0 0.0
2014-Jul-16 07:33N 37°49' W 122°25'0 0.0
2014-Jul-16 06:33N 37°49' W 122°25'0 0.0
2014-Jul-16 05:33N 37°49' W 122°25'0 0.0
2014-Jul-16 04:33N 37°49' W 122°25'0 0.0
2014-Jul-16 03:33N 37°49' W 122°25'0 0.0
2014-Jul-16 02:33N 37°49' W 122°25'2 2.0
2014-Jul-16 01:33N 37°50' W 122°27'2 2.0
2014-Jul-16 00:33N 37°49' W 122°25'0 0.0
2014-Jul-15 23:33N 37°49' W 122°25'2 2.3
2014-Jul-15 22:33N 37°49' W 122°28'2 2.3
2014-Jul-15 21:33N 37°49' W 122°25'1 0.5
2014-Jul-15 20:33N 37°49' W 122°25'1 0.1
2014-Jul-14 22:33N 37°48' W 122°24'5 4.6
2014-Jul-14 21:33N 37°52' W 122°28'  
Track history (hours):
 
Tides and Currents Weather Stations Pressure Air Temp Water Temp Dewpoint Dewpoint Depression Visibility Wind Speed Wind Dir Waves Ship Positions

Harbor Emperor

More information available from US FCC via Universal Licensing System and Coast Guard Vessel Documentation Center.

Last reported at 2014-Jul-24 21:33 UTC. Time now 2014-Jul-24 21:42 UTC.
Position N 37°49' W 122°25'.

Length 31 m.

Type: Passenger vessel. MMSI: 366985270.

Date/timePositionNaut miles runAvg speedWind from/ knotsBaromVisibWave heightAir tempDewpointWater temp
2014-Jul-24 21:33N 37°49' W 122°25'2 1.9
2014-Jul-24 20:33N 37°49' W 122°27'3 2.8
2014-Jul-24 19:33N 37°49' W 122°24'1 1.0
2014-Jul-24 18:33N 37°49' W 122°25'0 0.0
2014-Jul-24 03:32N 37°49' W 122°25'0 0.1
2014-Jul-24 02:34N 37°49' W 122°25'2 1.9
2014-Jul-24 01:33N 37°50' W 122°27'2 2.0
2014-Jul-24 00:33N 37°49' W 122°25'0 0.1
2014-Jul-23 23:33N 37°49' W 122°25'2 2.2
2014-Jul-23 22:33N 37°49' W 122°28'2 2.3
2014-Jul-23 21:34N 37°49' W 122°25'2 2.5
2014-Jul-23 20:33N 37°49' W 122°28'3 3.4
2014-Jul-23 19:33N 37°48' W 122°24'1 0.9
2014-Jul-23 18:34N 37°49' W 122°25'0 0.0
2014-Jul-23 03:33N 37°49' W 122°25'0 0.0
2014-Jul-23 02:34N 37°49' W 122°25'2 1.6
2014-Jul-23 01:33N 37°50' W 122°26'2 1.6
2014-Jul-23 00:33N 37°49' W 122°25'0 0.0
2014-Jul-22 23:33N 37°49' W 122°25'2 1.7
2014-Jul-22 22:34N 37°49' W 122°27'2 1.7
2014-Jul-22 21:33N 37°49' W 122°25'2 1.8
2014-Jul-22 20:33N 37°49' W 122°27'2 1.9
2014-Jul-22 19:33N 37°50' W 122°25'1 1.0
2014-Jul-22 18:33N 37°49' W 122°25'0 0.0
2014-Jul-22 05:23N 37°49' W 122°25'1 1.7
2014-Jul-22 04:33N 37°48' W 122°23'4 4.4
2014-Jul-22 03:33N 37°49' W 122°28'2 2.2
2014-Jul-22 02:34N 37°50' W 122°26'4 3.6
2014-Jul-22 01:33N 37°47' W 122°23'0 0.2
2014-Jul-22 00:33N 37°47' W 122°23'2 2.2
2014-Jul-21 23:33N 37°49' W 122°25'1 1.0
2014-Jul-21 22:33N 37°49' W 122°26'1 1.0
2014-Jul-21 21:34N 37°49' W 122°25'0 0.1
2014-Jul-21 20:33N 37°49' W 122°25'0 0.2
2014-Jul-21 20:18N 37°49' W 122°25'4 5.1
2014-Jul-21 19:32N 37°52' W 122°27'5 5.0
2014-Jul-21 18:34N 37°48' W 122°24'1 0.9
2014-Jul-21 17:34N 37°49' W 122°25'0 0.1
2014-Jul-21 16:34N 37°49' W 122°25'0 0.0
2014-Jul-21 03:31N 37°49' W 122°25'0 0.0
2014-Jul-21 02:33N 37°49' W 122°25'2 2.2
2014-Jul-21 01:33N 37°49' W 122°27'2 2.2
2014-Jul-21 00:33N 37°49' W 122°25'0 0.0
2014-Jul-20 23:34N 37°49' W 122°25'2 2.0
2014-Jul-20 22:34N 37°49' W 122°27'2 2.0
2014-Jul-20 21:33N 37°49' W 122°25'2 1.8
2014-Jul-20 20:33N 37°49' W 122°27'2 1.8
2014-Jul-20 19:33N 37°49' W 122°25'1 0.7
2014-Jul-20 18:33N 37°49' W 122°25'0 0.0
2014-Jul-20 03:33N 37°49' W 122°25'0 0.0
2014-Jul-20 02:33N 37°49' W 122°25'2 2.3
2014-Jul-20 01:33N 37°49' W 122°27'2 2.3
2014-Jul-20 00:34N 37°49' W 122°25'0 0.0
2014-Jul-19 23:33N 37°49' W 122°25'1 1.2
2014-Jul-19 22:34N 37°49' W 122°26'1 1.2
2014-Jul-19 21:34N 37°49' W 122°25'1 1.5
2014-Jul-19 20:33N 37°49' W 122°27'1 1.4
2014-Jul-19 19:33N 37°49' W 122°25'1 0.8
2014-Jul-19 18:33N 37°49' W 122°25'0 0.0
2014-Jul-19 03:30N 37°49' W 122°25'0 0.1
2014-Jul-19 02:33N 37°49' W 122°25'2 1.9
2014-Jul-19 01:33N 37°49' W 122°27'2 2.0
2014-Jul-19 00:33N 37°49' W 122°25'0 0.0
2014-Jul-18 23:33N 37°49' W 122°25'1 0.9
2014-Jul-18 22:33N 37°49' W 122°26'1 0.9
2014-Jul-18 21:33N 37°49' W 122°25'1 1.2
2014-Jul-18 20:33N 37°49' W 122°26'1 1.1
2014-Jul-18 19:33N 37°49' W 122°25'1 0.8
2014-Jul-18 18:33N 37°49' W 122°25'0 0.0
2014-Jul-18 02:31N 37°49' W 122°25'0 0.0
2014-Jul-18 01:33N 37°49' W 122°25'0 0.0
2014-Jul-18 00:33N 37°49' W 122°25'0 0.1
2014-Jul-17 23:34N 37°49' W 122°25'2 1.7
2014-Jul-17 22:33N 37°49' W 122°27'2 1.8
2014-Jul-17 21:33N 37°49' W 122°25'2 1.8
2014-Jul-17 20:33N 37°49' W 122°27'2 2.5
2014-Jul-17 19:33N 37°49' W 122°24'1 0.7
2014-Jul-17 18:34N 37°49' W 122°25'0 0.0
2014-Jul-17 17:29N 37°49' W 122°25'0 0.0
2014-Jul-17 16:32N 37°49' W 122°25'0 0.0
2014-Jul-17 15:32N 37°49' W 122°25'0 0.0
2014-Jul-17 14:32N 37°49' W 122°25'0 0.0
2014-Jul-17 13:32N 37°49' W 122°25'0 0.0
2014-Jul-17 12:32N 37°49' W 122°25'0 0.0
2014-Jul-17 11:32N 37°49' W 122°25'0 0.0
2014-Jul-17 10:32N 37°49' W 122°25'0 0.0
2014-Jul-17 09:32N 37°49' W 122°25'0 0.0
2014-Jul-17 08:32N 37°49' W 122°25'0 0.0
2014-Jul-17 07:26N 37°49' W 122°25'0 0.0
2014-Jul-17 06:32N 37°49' W 122°25'0 0.0
2014-Jul-17 05:32N 37°49' W 122°25'0 0.0
2014-Jul-17 04:30N 37°49' W 122°25'4 3.8
2014-Jul-17 03:34N 37°51' W 122°28'4 0.7
2014-Jul-16 22:34N 37°49' W 122°24'3 2.6
2014-Jul-16 21:33N 37°50' W 122°27'2 1.9
2014-Jul-16 20:34N 37°52' W 122°27'4 4.5
2014-Jul-16 19:34N 37°49' W 122°24'1 0.7
2014-Jul-16 18:33N 37°49' W 122°25'0 0.0
2014-Jul-16 17:33N 37°49' W 122°25'0 0.1
2014-Jul-16 16:33N 37°49' W 122°25'0 0.0
2014-Jul-16 15:33N 37°49' W 122°25'0 0.0
2014-Jul-16 14:33N 37°49' W 122°25'0 0.0
2014-Jul-16 13:33N 37°49' W 122°25'0 0.0
2014-Jul-16 12:33N 37°49' W 122°25'0 0.0
2014-Jul-16 11:33N 37°49' W 122°25'0 0.0
2014-Jul-16 10:33N 37°49' W 122°25'0 0.0
2014-Jul-16 09:33N 37°49' W 122°25'0 0.0
2014-Jul-16 08:33N 37°49' W 122°25'0 0.0
2014-Jul-16 07:33N 37°49' W 122°25'0 0.0
2014-Jul-16 06:33N 37°49' W 122°25'0 0.0
2014-Jul-16 05:33N 37°49' W 122°25'0 0.0
2014-Jul-16 04:33N 37°49' W 122°25'0 0.0
2014-Jul-16 03:33N 37°49' W 122°25'0 0.0
2014-Jul-16 02:33N 37°49' W 122°25'2 2.0
2014-Jul-16 01:33N 37°50' W 122°27'2 2.0
2014-Jul-16 00:33N 37°49' W 122°25'0 0.0
2014-Jul-15 23:33N 37°49' W 122°25'2 2.3
2014-Jul-15 22:33N 37°49' W 122°28'2 2.3
2014-Jul-15 21:33N 37°49' W 122°25'1 0.5
2014-Jul-15 20:33N 37°49' W 122°25'1 0.1
2014-Jul-14 22:33N 37°48' W 122°24'5 4.6
2014-Jul-14 21:33N 37°52' W 122°28'  

Dump ship's entire track history